createdAt,value
2024-01-11T09:56:55.618Z,13.85
2024-01-11T09:59:25.671Z,14.16
2024-01-11T10:01:52.780Z,14.53
2024-01-11T10:04:19.573Z,14.95
2024-01-11T10:06:46.528Z,15.33
2024-01-11T10:09:14.204Z,15.68
2024-01-11T10:11:41.180Z,16.00
2024-01-11T10:14:09.202Z,16.27
2024-01-11T10:16:36.621Z,16.52
2024-01-11T10:19:04.818Z,16.72
2024-01-11T10:21:31.714Z,16.91
2024-01-11T10:24:00.398Z,17.09
2024-01-11T10:26:27.048Z,17.23
2024-01-11T10:28:53.713Z,17.38
2024-01-11T10:31:25.560Z,17.48
2024-01-11T10:36:23.190Z,17.63
2024-01-11T10:38:50.064Z,17.75
2024-01-11T10:41:21.499Z,17.83
2024-01-11T10:43:50.087Z,17.91
2024-01-11T10:46:23.289Z,17.99
2024-01-11T10:48:53.887Z,18.06
2024-01-11T10:51:23.669Z,18.09
2024-01-11T10:53:52.679Z,18.10
2024-01-11T10:56:21.145Z,18.18
2024-01-11T10:58:48.575Z,18.23
2024-01-11T11:01:15.511Z,18.20
2024-01-11T11:03:45.447Z,18.27
2024-01-11T11:06:13.121Z,18.30
2024-01-11T11:08:41.292Z,18.32
2024-01-11T11:11:09.797Z,18.35
2024-01-11T11:13:36.679Z,18.37
2024-01-11T11:16:07.116Z,18.37
2024-01-11T11:18:36.589Z,18.40
2024-01-11T11:21:10.543Z,18.43
2024-01-11T11:23:38.299Z,18.46
2024-01-11T11:26:07.598Z,18.47
2024-01-11T11:28:35.974Z,18.50
2024-01-11T11:31:04.265Z,18.52
2024-01-11T11:33:32.320Z,18.55
2024-01-11T11:36:00.218Z,18.56
2024-01-11T11:38:31.925Z,18.58
2024-01-11T11:41:00.867Z,18.60
2024-01-11T11:43:29.290Z,18.63
2024-01-11T11:45:58.849Z,18.64
2024-01-11T11:48:30.327Z,18.66
2024-01-11T11:51:07.058Z,18.66
2024-01-11T11:53:35.144Z,18.67
2024-01-11T11:56:03.424Z,18.70
2024-01-11T11:58:31.289Z,18.71
2024-01-11T12:01:02.231Z,18.72
2024-01-11T12:03:39.595Z,18.73
2024-01-11T12:06:08.415Z,18.73
2024-01-11T12:08:36.697Z,18.72
2024-01-11T12:11:04.279Z,18.77
2024-01-11T12:13:32.166Z,18.76
2024-01-11T12:15:59.512Z,18.81
2024-01-11T12:18:26.337Z,18.82
2024-01-11T12:20:56.439Z,18.82
2024-01-11T12:23:23.401Z,18.84
2024-01-11T12:25:50.193Z,18.87
2024-01-11T12:28:18.187Z,18.88
2024-01-11T12:30:46.444Z,18.88
2024-01-11T12:33:13.730Z,18.90
2024-01-11T12:35:40.635Z,18.90
2024-01-11T12:38:07.539Z,18.91
2024-01-11T12:40:41.461Z,18.92
2024-01-11T12:43:09.036Z,18.93
2024-01-11T12:45:36.817Z,18.94
2024-01-11T12:48:05.077Z,18.94
2024-01-11T12:50:35.065Z,18.96
2024-01-11T12:53:18.825Z,18.96
2024-01-11T12:55:54.451Z,18.94
2024-01-11T12:58:25.366Z,18.96
2024-01-11T13:00:53.362Z,18.96
2024-01-11T13:03:23.120Z,18.97
2024-01-11T13:05:50.317Z,18.94
2024-01-11T13:08:20.477Z,18.94
2024-01-11T13:10:49.489Z,18.94
2024-01-11T13:13:17.112Z,18.92
2024-01-11T13:15:43.791Z,18.92
2024-01-11T13:18:10.925Z,18.92
2024-01-11T13:20:38.256Z,18.93
2024-01-11T13:23:22.060Z,18.93
2024-01-11T13:25:50.966Z,18.93
2024-01-11T13:28:19.980Z,18.94
2024-01-11T13:30:47.800Z,18.93
2024-01-11T13:33:16.864Z,18.97
2024-01-11T13:35:47.096Z,19.00
2024-01-11T13:38:13.929Z,19.00
2024-01-11T13:40:41.537Z,18.99
2024-01-11T13:43:08.430Z,19.02
2024-01-11T13:45:37.426Z,19.02
2024-01-11T13:48:06.061Z,19.03
2024-01-11T13:50:33.953Z,19.04
2024-01-11T13:53:01.711Z,19.04
2024-01-11T13:55:28.647Z,19.06
2024-01-11T13:57:55.330Z,19.05
2024-01-11T14:00:22.225Z,19.06
2024-01-11T14:02:49.305Z,19.05
2024-01-11T14:05:19.661Z,19.08
2024-01-11T14:07:47.460Z,19.08
2024-01-11T14:10:16.425Z,19.08
2024-01-11T14:12:43.399Z,19.08
2024-01-11T14:15:14.400Z,19.08
2024-01-11T14:17:42.449Z,19.06
2024-01-11T14:20:15.234Z,19.07
2024-01-11T14:22:43.271Z,19.05
2024-01-11T14:25:12.804Z,19.04
